createdAt,value
2022-10-14T00:00:46.729Z,44.35
2022-10-14T00:05:48.865Z,45.78
2022-10-14T00:10:51.193Z,57.22
2022-10-14T00:15:53.164Z,55.22
2022-10-14T00:21:00.868Z,51.03
2022-10-14T00:26:04.485Z,64.95
2022-10-14T00:31:07.664Z,57.10
2022-10-14T00:36:12.424Z,47.30
2022-10-14T00:41:20.795Z,52.20
2022-10-14T00:46:24.727Z,44.55
2022-10-14T00:51:34.883Z,41.50
2022-10-14T00:56:37.091Z,42.42
2022-10-14T01:01:42.816Z,39.45
2022-10-14T01:07:04.013Z,41.67
2022-10-14T01:12:28.956Z,41.58
2022-10-14T01:17:58.352Z,46.97
2022-10-14T01:23:18.664Z,44.08
2022-10-14T01:28:30.105Z,45.00
2022-10-14T01:33:45.217Z,45.28
2022-10-14T01:39:02.398Z,42.92
2022-10-14T01:44:09.591Z,36.55
2022-10-14T01:49:23.496Z,44.55
2022-10-14T01:54:31.469Z,38.78
2022-10-14T01:59:35.604Z,38.85
2022-10-14T02:04:37.909Z,41.75
2022-10-14T02:10:13.845Z,34.87
2022-10-14T02:16:12.556Z,42.33
2022-10-14T02:21:17.393Z,40.17
2022-10-14T02:26:20.657Z,40.63
2022-10-14T02:31:25.023Z,42.10
2022-10-14T02:36:34.967Z,40.85
2022-10-14T02:41:41.887Z,38.35
2022-10-14T02:46:43.925Z,40.30
2022-10-14T02:51:47.501Z,38.92
2022-10-14T02:56:49.479Z,38.42
2022-10-14T03:01:51.641Z,41.47
2022-10-14T03:06:55.632Z,44.05
2022-10-14T03:11:59.664Z,45.67
2022-10-14T03:17:01.929Z,38.88
2022-10-14T03:22:07.962Z,44.78
2022-10-14T03:27:11.888Z,48.92
2022-10-14T03:32:14.214Z,47.30
2022-10-14T03:37:34.655Z,52.28
2022-10-14T03:42:38.042Z,47.92
2022-10-14T03:47:42.358Z,41.63
2022-10-14T03:52:47.099Z,42.15
2022-10-14T03:57:59.705Z,35.33
2022-10-14T04:03:02.949Z,43.65
2022-10-14T04:08:10.417Z,41.58
2022-10-14T04:13:16.171Z,42.70
2022-10-14T04:18:18.251Z,47.20
2022-10-14T04:23:22.618Z,48.13
2022-10-14T04:28:29.564Z,45.35
2022-10-14T04:33:41.533Z,50.90
2022-10-14T04:38:51.509Z,57.58
2022-10-14T04:43:54.205Z,60.88
2022-10-14T04:49:25.470Z,61.75
2022-10-14T04:54:43.928Z,59.75
2022-10-14T04:59:46.010Z,60.33
2022-10-14T05:04:48.023Z,51.35
2022-10-14T05:09:56.223Z,48.63
2022-10-14T05:15:15.129Z,45.40
2022-10-14T05:20:27.601Z,55.80
2022-10-14T05:25:31.884Z,48.72
2022-10-14T05:30:34.983Z,48.08
2022-10-14T05:35:58.749Z,47.75
2022-10-14T05:41:09.547Z,46.47
2022-10-14T05:46:12.592Z,44.03
2022-10-14T05:51:21.241Z,41.85
2022-10-14T05:56:27.589Z,42.85
2022-10-14T06:01:31.423Z,51.70
2022-10-14T06:11:35.788Z,50.28
2022-10-14T06:16:38.221Z,41.10
2022-10-14T06:21:42.337Z,48.45
2022-10-14T06:26:44.453Z,42.72
2022-10-14T06:31:46.785Z,43.60
2022-10-14T06:36:48.817Z,39.42
2022-10-14T06:41:50.799Z,42.22
2022-10-14T06:46:55.882Z,47.35
2022-10-14T06:51:57.929Z,45.88
2022-10-14T06:56:59.913Z,56.28
2022-10-14T07:02:20.673Z,49.90
2022-10-14T07:07:23.135Z,50.72
2022-10-14T07:12:26.049Z,38.15
2022-10-14T07:17:28.046Z,37.03
2022-10-14T07:22:30.998Z,40.40
2022-10-14T07:27:34.359Z,41.75
2022-10-14T07:32:37.085Z,40.40
2022-10-14T07:37:39.145Z,41.67
2022-10-14T07:42:41.401Z,50.15
2022-10-14T07:47:45.316Z,53.35
2022-10-14T07:52:47.362Z,43.72
2022-10-14T07:57:49.348Z,47.75
2022-10-14T08:02:51.424Z,45.05
2022-10-14T08:07:53.458Z,39.88
2022-10-14T08:12:57.834Z,47.50
2022-10-14T08:18:00.013Z,44.60
2022-10-14T08:23:02.389Z,44.47
2022-10-14T08:28:04.926Z,41.47
2022-10-14T08:33:06.970Z,44.28
2022-10-14T08:38:09.229Z,44.22
2022-10-14T08:43:30.844Z,42.92
2022-10-14T08:48:35.497Z,41.53
2022-10-14T08:53:45.142Z,40.72
2022-10-14T08:58:50.618Z,37.97
2022-10-14T09:03:57.714Z,40.13
2022-10-14T09:09:15.651Z,39.83
2022-10-14T09:14:25.012Z,36.42
2022-10-14T09:19:33.314Z,33.80
2022-10-14T09:24:36.082Z,41.17
2022-10-14T09:29:54.876Z,36.13
2022-10-14T09:34:58.103Z,43.20
2022-10-14T09:40:04.427Z,31.52
2022-10-14T09:45:13.582Z,33.85
2022-10-14T09:50:40.961Z,30.73
2022-10-14T09:55:55.942Z,45.95
2022-10-14T10:01:00.285Z,37.95
2022-10-14T10:06:06.300Z,41.53
2022-10-14T10:11:13.705Z,32.50
2022-10-14T10:16:21.969Z,30.60
2022-10-14T10:21:32.239Z,28.27
2022-10-14T10:26:35.021Z,30.05
2022-10-14T10:32:07.194Z,24.87
2022-10-14T10:37:29.128Z,24.35
2022-10-14T10:43:06.584Z,28.13
2022-10-14T10:48:21.290Z,30.98
2022-10-14T10:53:29.603Z,28.90
2022-10-14T10:58:49.863Z,27.83
2022-10-14T11:04:12.919Z,29.52
2022-10-14T11:09:40.559Z,28.10
2022-10-14T11:15:10.706Z,32.75
2022-10-14T11:20:56.262Z,26.42
2022-10-14T11:26:18.660Z,31.15
2022-10-14T11:31:52.101Z,30.45
2022-10-14T11:37:12.197Z,28.85
2022-10-14T11:42:27.092Z,27.08
2022-10-14T11:47:35.657Z,23.33
2022-10-14T11:53:04.381Z,27.75
2022-10-14T11:58:17.387Z,23.63
2022-10-14T12:03:34.441Z,27.52
2022-10-14T12:08:57.240Z,28.70
2022-10-14T12:14:31.492Z,27.65
2022-10-14T12:19:33.950Z,31.08
2022-10-14T12:24:45.128Z,25.30
2022-10-14T12:29:52.309Z,32.13
2022-10-14T12:34:58.482Z,24.85
2022-10-14T12:40:03.707Z,24.92
2022-10-14T12:45:24.116Z,27.52
2022-10-14T12:50:31.463Z,33.22
2022-10-14T12:55:51.139Z,27.08
2022-10-14T13:00:56.120Z,26.85
2022-10-14T13:06:28.645Z,24.95
2022-10-14T13:11:30.993Z,26.50
2022-10-14T13:16:58.393Z,26.20
2022-10-14T13:22:18.550Z,24.58
2022-10-14T13:27:48.317Z,40.67
2022-10-14T13:32:57.645Z,24.67
2022-10-14T13:38:06.784Z,25.13
2022-10-14T13:43:20.140Z,29.38
2022-10-14T13:48:32.279Z,30.67
2022-10-14T13:53:34.344Z,32.25
2022-10-14T13:58:41.816Z,24.83
2022-10-14T14:03:46.681Z,30.13
2022-10-14T14:08:56.715Z,27.92
2022-10-14T14:14:02.969Z,37.97
2022-10-14T14:19:11.962Z,34.70
2022-10-14T14:24:25.222Z,24.27
2022-10-14T14:29:30.982Z,26.30
2022-10-14T14:34:34.796Z,22.98
2022-10-14T14:39:37.134Z,28.98
2022-10-14T14:44:39.790Z,27.92
2022-10-14T14:49:46.011Z,25.37
2022-10-14T14:54:48.385Z,33.25
2022-10-14T15:00:03.687Z,51.95
2022-10-14T15:05:08.726Z,29.33
2022-10-14T15:10:22.843Z,26.42
2022-10-14T15:15:31.139Z,28.75
2022-10-14T15:20:37.286Z,33.65
2022-10-14T15:25:41.101Z,31.02
2022-10-14T15:30:43.107Z,26.45
2022-10-14T15:35:53.496Z,30.80
2022-10-14T15:41:02.091Z,33.53
2022-10-14T15:46:31.896Z,36.22
2022-10-14T15:51:34.209Z,30.30
2022-10-14T15:56:36.309Z,32.10
2022-10-14T16:01:41.171Z,32.53
2022-10-14T16:06:43.298Z,35.60
2022-10-14T16:11:45.402Z,42.20
2022-10-14T16:16:47.510Z,41.28
2022-10-14T16:21:50.369Z,46.10
2022-10-14T16:26:53.036Z,36.13
2022-10-14T16:31:55.385Z,41.13
2022-10-14T16:36:57.708Z,39.50
2022-10-14T16:42:00.297Z,40.67
2022-10-14T16:47:17.569Z,41.63
2022-10-14T16:52:19.863Z,38.63
2022-10-14T16:57:24.226Z,43.28
2022-10-14T17:02:34.900Z,40.70
2022-10-14T17:07:37.205Z,39.65
2022-10-14T17:12:39.572Z,39.22
2022-10-14T17:17:41.640Z,41.47
2022-10-14T17:22:43.720Z,43.53
2022-10-14T17:27:45.840Z,44.42
2022-10-14T17:32:48.022Z,42.28
2022-10-14T17:37:54.817Z,48.03
2022-10-14T17:42:58.205Z,49.13
2022-10-14T17:48:00.785Z,50.43
2022-10-14T17:53:03.157Z,55.33
2022-10-14T17:58:05.171Z,53.10
2022-10-14T18:03:10.047Z,53.70
2022-10-14T18:08:14.007Z,53.60
2022-10-14T18:13:18.570Z,54.17
2022-10-14T18:18:20.642Z,54.13
2022-10-14T18:23:23.224Z,58.00
2022-10-14T18:28:25.587Z,59.20
2022-10-14T18:33:29.486Z,52.50
2022-10-14T18:38:32.419Z,56.80
2022-10-14T18:43:34.559Z,57.38
2022-10-14T18:48:37.507Z,58.95
2022-10-14T18:53:41.333Z,56.17
2022-10-14T18:58:49.691Z,53.63
2022-10-14T19:03:52.901Z,60.53
2022-10-14T19:08:54.905Z,60.78
2022-10-14T19:13:59.085Z,76.85
2022-10-14T19:24:11.570Z,59.33
2022-10-14T19:29:15.247Z,62.10
2022-10-14T19:34:17.457Z,64.93
2022-10-14T19:39:19.813Z,61.55
2022-10-14T19:44:22.078Z,65.30
2022-10-14T19:49:27.266Z,65.28
2022-10-14T19:54:29.572Z,61.47
2022-10-14T19:59:31.656Z,64.20
2022-10-14T20:04:33.918Z,65.13
2022-10-14T20:09:36.085Z,69.40
2022-10-14T20:14:38.245Z,66.75
2022-10-14T20:19:40.363Z,70.65
2022-10-14T20:24:43.556Z,69.15
2022-10-14T20:29:45.573Z,69.47
2022-10-14T20:34:48.061Z,81.35
2022-10-14T20:39:50.110Z,75.43
2022-10-14T20:44:52.166Z,89.38
2022-10-14T20:49:54.261Z,99.10
2022-10-14T20:54:56.434Z,82.75
2022-10-14T20:59:58.484Z,80.15
2022-10-14T21:05:00.545Z,82.97
2022-10-14T21:10:02.886Z,80.13
2022-10-14T21:15:05.356Z,87.15
2022-10-14T21:20:07.819Z,86.07
2022-10-14T21:25:09.982Z,89.57
2022-10-14T21:30:12.764Z,86.68
2022-10-14T21:35:15.201Z,89.17
2022-10-14T21:40:17.576Z,105.28
2022-10-14T21:45:19.710Z,92.30
2022-10-14T21:50:22.397Z,90.90
2022-10-14T21:55:27.557Z,100.20
2022-10-14T22:00:36.636Z,88.32
2022-10-14T22:05:45.407Z,96.72
2022-10-14T22:10:47.721Z,96.50
2022-10-14T22:15:49.828Z,120.55
2022-10-14T22:21:00.893Z,99.45
2022-10-14T22:26:04.721Z,101.50
2022-10-14T22:31:09.577Z,116.78
2022-10-14T22:36:23.577Z,109.05
2022-10-14T22:41:30.990Z,109.78
2022-10-14T22:46:38.417Z,121.65
2022-10-14T22:51:40.924Z,108.68
2022-10-14T22:56:43.133Z,108.78
2022-10-14T23:01:45.161Z,113.68
2022-10-14T23:06:49.654Z,114.32
2022-10-14T23:11:51.712Z,120.30
2022-10-14T23:16:53.995Z,114.75
2022-10-14T23:21:56.393Z,133.98
2022-10-14T23:26:58.407Z,126.28
2022-10-14T23:32:00.509Z,126.70
2022-10-14T23:37:02.692Z,113.40
2022-10-14T23:42:04.792Z,121.97
2022-10-14T23:47:06.949Z,117.32
2022-10-14T23:52:09.592Z,133.90
2022-10-14T23:57:11.666Z,111.75
